Time;durP1;ratioP1;P1;durP2;ratioP2;P2;SDS_P1;SDS_P2;PMS_P1;PMS_P2;Temp;Humidity;BMP_temperature;BMP_pressure;BME280_temperature;BME280_humidity;BME280_pressure;Samples;Min_cycle;Max_cycle;Signal;HPM_P1;HPM_P2
2022/07/31 00:01:53;;;;;;;3.80;3.50;;;21.60;79.50;;;;;;6119647;23;20417;-72
2022/07/31 00:04:23;;;;;;;3.43;3.17;;;21.60;79.60;;;;;;6117810;22;20432;-72
2022/07/31 00:06:51;;;;;;;3.80;3.47;;;21.60;79.60;;;;;;6118087;23;20442;-72
2022/07/31 00:09:18;;;;;;;3.80;3.50;;;21.70;79.80;;;;;;6120008;23;20410;-72
2022/07/31 00:11:46;;;;;;;4.43;3.87;;;21.60;79.80;;;;;;6118616;22;20406;-72
2022/07/31 00:14:14;;;;;;;3.63;3.30;;;21.70;80.00;;;;;;6117070;23;20502;-73
2022/07/31 00:16:42;;;;;;;3.80;3.43;;;21.60;80.10;;;;;;6116573;22;20445;-72
2022/07/31 00:19:09;;;;;;;4.13;3.70;;;21.60;80.60;;;;;;6119312;23;20493;-72
2022/07/31 00:21:36;;;;;;;4.10;3.80;;;21.60;81.30;;;;;;6119341;23;20401;-72
2022/07/31 00:24:04;;;;;;;3.90;3.60;;;21.50;81.70;;;;;;6119050;22;20454;-72
2022/07/31 00:26:31;;;;;;;4.30;3.90;;;21.50;82.40;;;;;;6117198;23;20995;-72
2022/07/31 00:28:58;;;;;;;3.53;3.23;;;21.40;83.00;;;;;;6118642;23;20966;-72
2022/07/31 00:31:26;;;;;;;3.60;3.30;;;21.30;83.60;;;;;;6119642;22;20501;-72
2022/07/31 00:33:53;;;;;;;4.67;4.07;;;21.30;84.30;;;;;;6117996;22;20426;-72
2022/07/31 00:36:20;;;;;;;4.00;3.60;;;21.30;84.40;;;;;;6118141;22;20391;-72
2022/07/31 00:38:48;;;;;;;4.07;3.77;;;21.20;84.90;;;;;;6119436;23;20430;-72
2022/07/31 00:41:15;;;;;;;4.03;3.73;;;21.20;85.50;;;;;;6116637;23;20413;-72
2022/07/31 00:43:42;;;;;;;4.03;3.73;;;21.10;85.90;;;;;;6117307;23;21304;-72
2022/07/31 00:46:09;;;;;;;4.17;3.60;;;21.00;85.60;;;;;;6117636;23;20480;-72
2022/07/31 00:48:37;;;;;;;5.17;4.43;;;20.90;86.60;;;;;;6119343;23;20514;-72
2022/07/31 00:51:04;;;;;;;4.00;3.70;;;20.90;87.60;;;;;;6118137;23;20408;-72
2022/07/31 00:53:31;;;;;;;5.33;4.13;;;20.80;88.20;;;;;;6118080;23;20441;-72
2022/07/31 00:55:58;;;;;;;4.87;4.47;;;20.70;88.50;;;;;;6118043;23;20497;-72
2022/07/31 00:58:25;;;;;;;5.07;4.67;;;20.60;88.80;;;;;;6118495;23;20412;-72
2022/07/31 01:00:53;;;;;;;5.20;4.80;;;20.50;89.80;;;;;;6120695;23;20782;-72
2022/07/31 01:03:20;;;;;;;5.20;4.80;;;20.30;90.40;;;;;;6117578;23;20801;-72
2022/07/31 01:05:48;;;;;;;5.47;5.07;;;20.10;91.20;;;;;;6117903;23;20797;-72
2022/07/31 01:08:15;;;;;;;6.30;5.80;;;19.90;91.80;;;;;;6119924;23;20437;-72
2022/07/31 01:10:50;;;;;;;5.90;5.33;;;19.80;92.40;;;;;;6118650;22;20489;-71
2022/07/31 01:13:26;;;;;;;5.90;5.40;;;19.70;93.30;;;;;;6118174;23;20398;-72
2022/07/31 01:15:55;;;;;;;5.93;5.43;;;19.50;94.30;;;;;;6116370;23;20429;-72
2022/07/31 01:18:24;;;;;;;6.47;5.97;;;19.40;95.20;;;;;;6118252;23;20411;-72
2022/07/31 01:20:55;;;;;;;5.73;5.33;;;19.30;96.50;;;;;;6119606;22;20502;-72
2022/07/31 01:23:41;;;;;;;6.20;5.80;;;19.20;97.70;;;;;;6118477;23;20422;-72
2022/07/31 01:26:19;;;;;;;6.37;5.73;;;19.10;98.90;;;;;;6118509;23;20557;-73
2022/07/31 01:29:09;;;;;;;6.60;6.10;;;19.00;99.90;;;;;;6118397;23;20498;-72
2022/07/31 01:31:43;;;;;;;6.23;5.70;;;18.90;99.90;;;;;;6118608;23;20789;-72
2022/07/31 01:34:19;;;;;;;7.20;6.50;;;18.80;99.90;;;;;;6118091;23;20433;-72
2022/07/31 01:36:51;;;;;;;6.10;5.60;;;18.70;99.90;;;;;;6118454;22;20398;-72
2022/07/31 01:39:18;;;;;;;6.20;5.70;;;18.70;99.90;;;;;;6118643;22;20421;-72
2022/07/31 01:41:48;;;;;;;5.87;5.47;;;18.60;99.90;;;;;;6117684;23;20476;-72
2022/07/31 01:44:18;;;;;;;5.30;4.90;;;18.60;99.90;;;;;;6118099;23;20409;-72
2022/07/31 01:46:47;;;;;;;5.53;5.13;;;18.50;99.90;;;;;;6116869;23;20500;-72
2022/07/31 01:49:15;;;;;;;6.03;5.53;;;18.40;99.90;;;;;;6119236;23;20480;-72
2022/07/31 01:51:44;;;;;;;6.07;5.57;;;18.40;99.90;;;;;;6118118;23;20433;-72
2022/07/31 01:54:14;;;;;;;5.77;5.37;;;18.30;99.90;;;;;;6119505;23;20416;-72
2022/07/31 01:56:42;;;;;;;6.27;5.73;;;18.30;99.90;;;;;;6117160;23;20414;-72
2022/07/31 01:59:10;;;;;;;6.20;5.73;;;18.30;99.90;;;;;;6119380;23;20407;-72
2022/07/31 02:01:39;;;;;;;6.70;5.20;;;18.10;99.90;;;;;;6118926;22;20427;-71
2022/07/31 02:04:07;;;;;;;5.73;5.33;;;18.10;99.90;;;;;;6115612;23;21275;-72
2022/07/31 02:06:36;;;;;;;6.23;5.70;;;18.00;99.90;;;;;;6118828;22;20442;-72
2022/07/31 02:09:03;;;;;;;6.87;6.27;;;18.00;99.90;;;;;;6116992;23;20739;-71
2022/07/31 02:11:31;;;;;;;6.30;5.80;;;17.90;99.90;;;;;;6119347;23;20449;-71
2022/07/31 02:13:59;;;;;;;6.50;5.90;;;17.90;99.90;;;;;;6116529;23;20395;-72
2022/07/31 02:16:28;;;;;;;6.30;5.83;;;17.80;99.90;;;;;;6115698;22;20926;-72
2022/07/31 02:18:59;;;;;;;6.57;6.07;;;17.80;99.90;;;;;;6114928;22;20402;-72
2022/07/31 02:21:27;;;;;;;6.67;6.07;;;17.80;99.90;;;;;;6114833;23;20423;-72
2022/07/31 02:23:55;;;;;;;6.40;5.90;;;17.80;99.90;;;;;;6118263;23;20403;-72
2022/07/31 02:26:24;;;;;;;7.03;6.53;;;17.70;99.90;;;;;;6118588;23;20432;-72
2022/07/31 02:28:53;;;;;;;6.70;6.20;;;17.70;99.90;;;;;;6117048;22;20473;-72
2022/07/31 02:31:23;;;;;;;6.83;6.23;;;17.70;99.90;;;;;;6118480;23;20458;-72
2022/07/31 02:33:51;;;;;;;7.80;7.20;;;17.70;99.90;;;;;;6118221;23;20442;-72
2022/07/31 02:36:21;;;;;;;7.23;6.63;;;17.70;99.90;;;;;;6119244;23;20395;-72
2022/07/31 02:38:49;;;;;;;7.50;7.00;;;17.80;99.90;;;;;;6119190;23;20470;-72
2022/07/31 02:41:17;;;;;;;7.20;6.60;;;17.60;99.90;;;;;;6120377;23;20494;-72
2022/07/31 02:43:46;;;;;;;8.07;7.47;;;17.70;99.90;;;;;;6117780;22;20413;-72
2022/07/31 02:46:14;;;;;;;7.40;6.80;;;17.60;99.90;;;;;;6115862;22;20450;-72
2022/07/31 02:48:42;;;;;;;7.67;7.00;;;17.70;99.90;;;;;;6114979;23;20395;-72
2022/07/31 02:51:09;;;;;;;8.07;7.13;;;17.60;99.90;;;;;;6114173;23;21239;-72
2022/07/31 02:53:38;;;;;;;8.33;7.67;;;17.70;99.90;;;;;;6117373;23;20410;-72
2022/07/31 02:56:08;;;;;;;8.10;7.50;;;17.70;99.90;;;;;;6117798;23;20438;-71
2022/07/31 02:58:40;;;;;;;7.73;7.23;;;17.70;99.90;;;;;;6118257;23;20414;-72
2022/07/31 03:01:08;;;;;;;7.87;7.27;;;17.60;99.90;;;;;;6117459;23;20541;-72
2022/07/31 03:03:35;;;;;;;8.40;7.60;;;17.60;99.90;;;;;;6115028;23;20403;-72
2022/07/31 03:06:02;;;;;;;7.87;7.17;;;17.60;99.90;;;;;;6117425;23;20398;-70
2022/07/31 03:08:29;;;;;;;8.33;7.53;;;17.60;99.90;;;;;;6117490;23;20586;-70
2022/07/31 03:10:58;;;;;;;7.50;6.90;;;17.50;99.90;;;;;;6118570;23;20449;-70
2022/07/31 03:13:28;;;;;;;8.03;7.33;;;17.50;99.90;;;;;;6114277;23;20414;-71
2022/07/31 03:15:56;;;;;;;7.10;6.60;;;17.40;99.90;;;;;;6117872;23;20390;-71
2022/07/31 03:18:25;;;;;;;7.73;7.03;;;17.40;99.90;;;;;;6117128;23;20472;-72
2022/07/31 03:20:54;;;;;;;6.67;6.27;;;17.40;99.90;;;;;;6118427;23;20722;-71
2022/07/31 03:23:24;;;;;;;6.63;6.13;;;17.40;99.90;;;;;;6116713;22;20553;-71
2022/07/31 03:25:51;;;;;;;7.20;6.60;;;17.40;99.90;;;;;;6117333;23;20466;-71
2022/07/31 03:28:20;;;;;;;6.83;6.33;;;17.40;99.90;;;;;;6118200;23;20460;-72
2022/07/31 03:30:50;;;;;;;7.40;6.90;;;17.40;99.90;;;;;;6119817;23;20406;-71
2022/07/31 03:33:17;;;;;;;6.40;5.90;;;17.40;99.90;;;;;;6118225;22;20391;-71
2022/07/31 03:35:44;;;;;;;6.67;6.17;;;17.40;99.90;;;;;;6119454;22;20448;-71
2022/07/31 03:38:11;;;;;;;6.30;5.90;;;17.40;99.90;;;;;;6119315;23;20430;-71
2022/07/31 03:40:38;;;;;;;7.30;6.70;;;17.30;99.90;;;;;;6120514;23;20415;-71
2022/07/31 03:43:06;;;;;;;7.67;7.00;;;17.30;99.90;;;;;;6118198;23;20898;-71
2022/07/31 03:45:37;;;;;;;6.77;6.33;;;17.30;99.90;;;;;;6119528;23;20711;-71
2022/07/31 03:48:07;;;;;;;7.10;6.60;;;17.30;99.90;;;;;;6117893;23;20763;-71
2022/07/31 03:50:36;;;;;;;6.97;6.47;;;17.30;99.90;;;;;;6119905;22;20434;-71
2022/07/31 03:53:04;;;;;;;6.80;6.40;;;17.30;99.90;;;;;;6118456;22;20742;-72
2022/07/31 03:55:33;;;;;;;6.90;6.40;;;17.30;99.90;;;;;;6119518;23;20445;-71
2022/07/31 03:58:02;;;;;;;6.70;6.20;;;17.30;99.90;;;;;;6116977;23;20722;-72
2022/07/31 04:00:30;;;;;;;6.90;6.40;;;17.30;99.90;;;;;;6120073;22;20402;-72
2022/07/31 04:03:04;;;;;;;7.43;6.63;;;17.20;99.90;;;;;;6117168;23;20421;-72
2022/07/31 04:05:31;;;;;;;7.27;6.77;;;17.20;99.90;;;;;;6119589;23;20477;-72
2022/07/31 04:07:58;;;;;;;6.87;6.40;;;17.20;99.90;;;;;;6119107;22;20980;-72
2022/07/31 04:10:25;;;;;;;7.23;6.70;;;17.20;99.90;;;;;;6119383;23;20446;-71
2022/07/31 04:12:52;;;;;;;7.30;6.60;;;17.20;99.90;;;;;;6119229;23;20413;-71
2022/07/31 04:15:19;;;;;;;7.23;6.50;;;17.10;99.90;;;;;;6117891;23;20905;-71
2022/07/31 04:17:46;;;;;;;7.90;7.40;;;17.20;99.90;;;;;;6118637;23;20493;-71
2022/07/31 04:20:14;;;;;;;6.80;6.30;;;17.10;99.90;;;;;;6118090;23;20442;-71
2022/07/31 04:22:41;;;;;;;6.70;6.30;;;17.10;99.90;;;;;;6119699;22;20530;-71
2022/07/31 04:25:09;;;;;;;6.57;6.17;;;17.10;99.90;;;;;;6117228;23;20423;-71
2022/07/31 04:27:37;;;;;;;7.17;6.67;;;17.10;99.90;;;;;;6118491;23;20526;-71
2022/07/31 04:30:05;;;;;;;8.10;7.50;;;17.10;99.90;;;;;;6118910;23;20482;-71
2022/07/31 04:32:32;;;;;;;8.27;7.67;;;17.00;99.90;;;;;;6118879;22;20678;-71
2022/07/31 04:34:59;;;;;;;7.33;6.80;;;17.00;99.90;;;;;;6117640;23;20909;-72
2022/07/31 04:37:28;;;;;;;8.07;7.47;;;16.90;99.90;;;;;;6118549;22;21133;-71
2022/07/31 04:39:55;;;;;;;7.73;7.10;;;16.90;99.90;;;;;;6117781;22;20419;-72
2022/07/31 04:42:22;;;;;;;8.60;7.90;;;16.90;99.90;;;;;;6118341;23;20498;-71
2022/07/31 04:44:49;;;;;;;8.13;7.63;;;16.90;99.90;;;;;;6118933;22;20398;-72
2022/07/31 04:47:16;;;;;;;8.60;7.93;;;16.90;99.90;;;;;;6118952;23;20453;-71
2022/07/31 04:49:43;;;;;;;9.27;7.73;;;16.90;99.90;;;;;;6118286;23;20414;-72
2022/07/31 04:52:10;;;;;;;9.00;8.30;;;16.90;99.90;;;;;;6118772;22;20715;-71
2022/07/31 04:54:39;;;;;;;8.67;8.17;;;16.90;99.90;;;;;;6118628;23;20476;-72
2022/07/31 04:57:06;;;;;;;9.60;8.73;;;17.00;99.90;;;;;;6119279;23;20449;-72
2022/07/31 04:59:33;;;;;;;9.07;8.47;;;17.00;99.90;;;;;;6119920;22;20414;-71
2022/07/31 05:02:00;;;;;;;8.43;7.80;;;17.00;99.90;;;;;;6117981;23;20956;-71
2022/07/31 05:04:27;;;;;;;8.37;7.77;;;17.10;99.90;;;;;;6119118;23;20411;-72
2022/07/31 05:06:54;;;;;;;8.30;7.70;;;17.10;99.90;;;;;;6117566;22;20430;-72
2022/07/31 05:09:23;;;;;;;8.33;7.73;;;17.10;99.90;;;;;;6118434;23;20898;-71
2022/07/31 05:11:52;;;;;;;8.20;7.60;;;17.10;99.90;;;;;;6117359;23;20473;-72
2022/07/31 05:14:20;;;;;;;8.10;7.50;;;17.20;99.90;;;;;;6119912;23;20742;-71
2022/07/31 05:16:49;;;;;;;8.10;7.50;;;17.40;99.90;;;;;;6120218;23;20425;-72
2022/07/31 05:19:16;;;;;;;8.03;7.43;;;17.30;99.90;;;;;;6119049;23;20506;-72
2022/07/31 05:21:44;;;;;;;8.50;7.90;;;17.30;99.90;;;;;;6119594;23;20442;-71
2022/07/31 05:24:11;;;;;;;8.10;7.40;;;17.40;99.90;;;;;;6118090;23;20407;-73
2022/07/31 05:26:39;;;;;;;7.10;6.70;;;17.40;99.90;;;;;;6117454;23;20427;-72
2022/07/31 05:29:07;;;;;;;8.40;7.80;;;17.50;99.90;;;;;;6118232;23;20460;-72
2022/07/31 05:31:34;;;;;;;8.17;7.53;;;17.60;99.90;;;;;;6118386;23;20426;-71
2022/07/31 05:34:01;;;;;;;7.70;7.20;;;17.60;99.90;;;;;;6117803;23;20967;-71
2022/07/31 05:36:28;;;;;;;7.70;7.00;;;17.70;99.90;;;;;;6115836;23;20507;-72
2022/07/31 05:38:55;;;;;;;7.20;6.80;;;17.70;99.90;;;;;;6118567;22;20426;-71
2022/07/31 05:41:22;;;;;;;7.27;6.77;;;17.80;99.90;;;;;;6117156;23;20396;-71
2022/07/31 05:43:49;;;;;;;7.30;6.70;;;17.80;99.90;;;;;;6117693;23;20586;-71
2022/07/31 05:46:17;;;;;;;7.03;6.40;;;17.80;99.90;;;;;;6118473;22;20422;-71
2022/07/31 05:48:45;;;;;;;7.30;6.80;;;17.80;99.90;;;;;;6119532;23;20553;-71
2022/07/31 05:51:13;;;;;;;7.70;7.10;;;17.90;99.90;;;;;;6118896;23;20438;-71
2022/07/31 05:53:41;;;;;;;6.90;6.37;;;17.90;99.90;;;;;;6116822;23;20417;-71
2022/07/31 05:56:08;;;;;;;7.90;7.30;;;17.90;99.90;;;;;;6115301;23;20434;-71
2022/07/31 05:58:36;;;;;;;7.10;6.60;;;18.00;99.90;;;;;;6117853;23;20440;-71
2022/07/31 06:01:03;;;;;;;7.33;6.80;;;18.00;99.90;;;;;;6116079;23;20493;-72
2022/07/31 06:03:34;;;;;;;7.07;6.47;;;18.00;99.90;;;;;;6116964;23;20403;-72
2022/07/31 06:06:03;;;;;;;7.23;6.80;;;18.00;99.90;;;;;;6115704;23;20954;-72
2022/07/31 06:08:31;;;;;;;7.50;6.60;;;18.20;99.90;;;;;;6116579;23;20925;-71
2022/07/31 06:10:58;;;;;;;7.37;6.87;;;18.30;99.90;;;;;;6119775;23;20414;-73
2022/07/31 06:13:28;;;;;;;6.90;6.30;;;18.40;99.90;;;;;;6117192;23;20468;-72
2022/07/31 06:15:56;;;;;;;6.60;6.00;;;18.50;99.90;;;;;;6117668;23;20490;-73
2022/07/31 06:18:23;;;;;;;6.33;5.93;;;18.60;99.90;;;;;;6118676;23;20787;-72
2022/07/31 06:20:52;;;;;;;5.77;5.30;;;18.70;99.90;;;;;;6119219;22;20420;-72
2022/07/31 06:23:19;;;;;;;6.53;5.93;;;18.80;99.90;;;;;;6117364;23;20403;-72
2022/07/31 06:25:46;;;;;;;6.20;5.70;;;19.20;99.90;;;;;;6117890;23;20434;-72
2022/07/31 06:28:13;;;;;;;5.70;5.30;;;19.10;99.90;;;;;;6118172;23;21027;-72
2022/07/31 06:30:40;;;;;;;5.60;5.20;;;19.10;99.90;;;;;;6118157;23;20407;-73
2022/07/31 06:33:08;;;;;;;6.43;6.03;;;19.20;99.90;;;;;;6118333;23;20414;-74
2022/07/31 06:35:35;;;;;;;5.30;4.90;;;19.30;99.90;;;;;;6119563;22;20510;-73
2022/07/31 06:38:03;;;;;;;5.73;5.33;;;19.50;99.90;;;;;;6119850;23;20439;-72
2022/07/31 06:40:30;;;;;;;5.13;4.73;;;19.60;99.90;;;;;;6117321;23;20409;-71
2022/07/31 06:42:57;;;;;;;5.80;5.30;;;19.70;99.90;;;;;;6117712;22;20727;-71
2022/07/31 06:45:24;;;;;;;6.07;5.23;;;19.80;99.90;;;;;;6116772;23;20455;-72
2022/07/31 06:47:51;;;;;;;6.57;6.07;;;19.80;99.90;;;;;;6115693;22;20439;-72
2022/07/31 06:50:18;;;;;;;5.80;5.20;;;19.90;99.90;;;;;;6115058;23;21035;-73
2022/07/31 06:52:46;;;;;;;5.30;5.00;;;20.00;99.90;;;;;;6114459;23;20436;-74
2022/07/31 06:55:14;;;;;;;6.17;5.67;;;20.10;99.90;;;;;;6114947;23;20441;-73
2022/07/31 06:57:41;;;;;;;5.33;4.93;;;20.20;99.90;;;;;;6116551;23;20427;-73
2022/07/31 07:00:09;;;;;;;5.27;4.83;;;20.30;99.90;;;;;;6115387;23;20415;-73
2022/07/31 07:02:37;;;;;;;6.30;5.50;;;20.30;99.90;;;;;;6112366;23;20413;-73
2022/07/31 07:05:05;;;;;;;5.17;4.87;;;20.40;99.90;;;;;;6115024;22;20938;-74
2022/07/31 07:07:35;;;;;;;5.53;5.03;;;20.40;99.90;;;;;;6116572;23;20964;-74
2022/07/31 07:10:03;;;;;;;5.90;5.33;;;20.50;99.90;;;;;;6118449;23;20398;-73
2022/07/31 07:12:31;;;;;;;4.70;4.40;;;20.60;99.90;;;;;;6115823;23;20404;-73
2022/07/31 07:14:58;;;;;;;5.43;4.93;;;20.60;99.90;;;;;;6111426;23;20496;-73
2022/07/31 07:17:25;;;;;;;4.40;4.10;;;20.60;99.90;;;;;;6117946;23;20433;-73
2022/07/31 07:19:52;;;;;;;4.90;4.47;;;20.70;99.90;;;;;;6119057;22;20508;-73
2022/07/31 07:22:19;;;;;;;4.40;4.10;;;21.10;99.90;;;;;;6118002;23;20448;-73
2022/07/31 07:24:47;;;;;;;5.50;4.50;;;21.10;99.90;;;;;;6116338;23;20496;-73
2022/07/31 07:27:14;;;;;;;4.40;4.00;;;21.30;99.90;;;;;;6116548;22;20880;-73
2022/07/31 07:29:42;;;;;;;4.30;4.00;;;21.40;99.90;;;;;;6117263;23;20491;-73
2022/07/31 07:32:11;;;;;;;4.27;3.97;;;21.60;99.90;;;;;;6115965;23;20907;-74
2022/07/31 07:34:38;;;;;;;4.60;4.30;;;21.80;99.90;;;;;;6113497;23;20431;-73
2022/07/31 07:37:06;;;;;;;4.63;4.23;;;22.00;99.90;;;;;;6115136;23;20473;-73
2022/07/31 07:39:33;;;;;;;3.60;3.30;;;22.10;99.90;;;;;;6118477;23;20399;-72
2022/07/31 07:42:00;;;;;;;4.10;3.80;;;22.20;99.90;;;;;;6118005;23;20453;-71
2022/07/31 07:44:27;;;;;;;4.43;4.13;;;22.40;99.90;;;;;;6116770;23;20431;-71
2022/07/31 07:46:55;;;;;;;3.97;3.67;;;22.50;99.90;;;;;;6117893;23;20446;-72
2022/07/31 07:49:22;;;;;;;3.43;3.10;;;22.70;99.90;;;;;;6115851;23;20762;-71
2022/07/31 07:51:49;;;;;;;4.07;3.77;;;22.80;99.90;;;;;;6118964;23;20423;-72
2022/07/31 07:54:16;;;;;;;4.50;4.00;;;22.90;99.90;;;;;;6117033;23;20427;-72
2022/07/31 07:56:44;;;;;;;4.47;4.17;;;23.10;99.90;;;;;;6115817;23;20422;-72
2022/07/31 07:59:12;;;;;;;4.20;3.90;;;23.20;99.90;;;;;;6117968;23;20391;-72
2022/07/31 08:01:39;;;;;;;4.90;4.50;;;23.30;99.90;;;;;;6117302;23;20411;-72
2022/07/31 08:04:07;;;;;;;3.30;3.10;;;23.20;99.90;;;;;;6116038;23;20426;-72
2022/07/31 08:06:34;;;;;;;3.67;3.40;;;23.20;99.90;;;;;;6117770;23;20438;-73
2022/07/31 08:09:01;;;;;;;3.70;3.40;;;23.30;99.90;;;;;;6115398;23;20860;-73
2022/07/31 08:11:28;;;;;;;4.30;3.90;;;23.50;99.90;;;;;;6116806;23;20407;-72
2022/07/31 08:13:55;;;;;;;4.70;4.27;;;23.70;99.90;;;;;;6117206;23;20430;-73
2022/07/31 08:16:22;;;;;;;3.80;3.50;;;23.90;99.90;;;;;;6117821;23;20479;-73
2022/07/31 08:18:51;;;;;;;3.70;3.40;;;24.10;99.90;;;;;;6119544;23;20415;-72
2022/07/31 08:21:20;;;;;;;3.80;3.50;;;24.50;99.90;;;;;;6118246;22;20419;-72
2022/07/31 08:23:47;;;;;;;3.90;3.60;;;24.70;99.90;;;;;;6116903;22;20433;-72
2022/07/31 08:26:16;;;;;;;3.53;3.23;;;24.80;99.90;;;;;;6117804;23;20422;-73
2022/07/31 08:28:43;;;;;;;3.60;3.30;;;25.00;99.90;;;;;;6119041;23;20442;-73
2022/07/31 08:31:10;;;;;;;3.70;3.40;;;25.10;99.10;;;;;;6118738;23;20898;-73
2022/07/31 08:33:37;;;;;;;3.93;3.70;;;25.20;99.20;;;;;;6119606;22;20431;-73
2022/07/31 08:36:07;;;;;;;4.53;3.20;;;25.10;98.70;;;;;;6119575;23;20407;-73
2022/07/31 08:38:36;;;;;;;3.50;3.20;;;25.20;98.90;;;;;;6119486;22;20395;-73
2022/07/31 08:41:03;;;;;;;3.60;3.30;;;25.70;98.70;;;;;;6119895;23;20406;-73
2022/07/31 08:43:30;;;;;;;3.83;3.53;;;26.20;97.20;;;;;;6118273;23;20431;-73
2022/07/31 08:46:01;;;;;;;3.83;3.53;;;26.80;95.50;;;;;;6118319;23;20407;-73
2022/07/31 08:48:31;;;;;;;3.67;3.37;;;27.00;93.70;;;;;;6119402;23;20442;-72
2022/07/31 08:51:01;;;;;;;3.30;2.80;;;27.20;93.90;;;;;;6119990;23;20394;-73
2022/07/31 08:53:31;;;;;;;2.90;2.70;;;27.80;92.30;;;;;;6117437;22;20422;-74
2022/07/31 08:56:00;;;;;;;2.87;2.63;;;28.30;91.20;;;;;;6117909;23;20422;-74
2022/07/31 08:58:27;;;;;;;3.20;2.90;;;28.70;87.80;;;;;;6124102;23;20909;-73
2022/07/31 09:00:55;;;;;;;3.53;3.23;;;29.00;87.40;;;;;;6121533;23;20419;-73
2022/07/31 09:03:22;;;;;;;3.07;2.77;;;29.30;83.80;;;;;;6117849;23;20995;-72
2022/07/31 09:05:49;;;;;;;3.00;2.80;;;29.30;81.60;;;;;;6119616;23;20391;-73
2022/07/31 09:08:16;;;;;;;3.27;2.97;;;29.10;80.80;;;;;;6120626;22;20402;-73
2022/07/31 09:10:44;;;;;;;2.80;2.50;;;29.00;78.20;;;;;;6118903;23;20481;-72
2022/07/31 09:13:17;;;;;;;2.97;2.67;;;28.90;79.60;;;;;;6118990;23;20423;-73
2022/07/31 09:15:45;;;;;;;2.80;2.60;;;28.90;76.80;;;;;;6118777;23;20402;-73
2022/07/31 09:18:17;;;;;;;3.43;2.87;;;29.10;76.90;;;;;;6118525;22;20482;-73
2022/07/31 09:20:55;;;;;;;2.57;2.37;;;29.20;75.30;;;;;;6119919;23;20397;-73
2022/07/31 09:23:24;;;;;;;3.33;2.43;;;29.40;76.00;;;;;;6118281;23;20506;-73
2022/07/31 09:25:52;;;;;;;3.57;2.57;;;29.90;73.90;;;;;;6115509;22;20399;-77
2022/07/31 12:50:42;;;;;;;2.07;1.97;;;31.30;56.70;;;;;;6221244;22;20625;-72
2022/07/31 12:53:10;;;;;;;2.70;2.30;;;31.00;56.70;;;;;;6179066;23;20441;-73
2022/07/31 12:55:37;;;;;;;2.13;1.93;;;31.00;56.90;;;;;;6188961;23;20935;-74
2022/07/31 12:58:04;;;;;;;2.30;2.10;;;30.90;56.70;;;;;;6182500;23;21028;-73
2022/07/31 13:00:31;;;;;;;2.10;1.97;;;30.80;56.80;;;;;;6165028;23;20439;-73
2022/07/31 13:02:58;;;;;;;1.97;1.77;;;30.80;57.50;;;;;;6174036;23;20548;-73
2022/07/31 13:05:26;;;;;;;2.30;2.03;;;30.80;57.90;;;;;;6165026;23;20782;-73
2022/07/31 13:07:54;;;;;;;3.27;2.27;;;31.00;56.80;;;;;;6165454;23;20853;-74
2022/07/31 13:10:22;;;;;;;1.87;1.70;;;31.30;57.70;;;;;;6160344;23;20554;-74
2022/07/31 13:12:50;;;;;;;2.30;1.80;;;31.60;56.80;;;;;;6172714;23;20434;-73
2022/07/31 13:15:17;;;;;;;2.33;2.13;;;32.10;56.10;;;;;;6165503;23;20527;-74
2022/07/31 13:17:45;;;;;;;2.10;1.90;;;32.50;55.70;;;;;;6161427;23;20455;-75
2022/07/31 13:20:13;;;;;;;2.03;1.83;;;33.00;54.20;;;;;;6171858;23;20519;-74
2022/07/31 13:22:40;;;;;;;2.00;1.90;;;33.00;53.50;;;;;;6176485;23;20434;-74
2022/07/31 13:25:09;;;;;;;2.33;1.77;;;32.70;54.40;;;;;;6180880;23;20477;-74
2022/07/31 13:27:36;;;;;;;2.00;1.90;;;32.50;54.40;;;;;;6168058;23;20461;-74
2022/07/31 13:30:04;;;;;;;2.00;1.80;;;32.80;54.20;;;;;;6158325;23;20464;-74
2022/07/31 13:32:31;;;;;;;1.90;1.80;;;33.40;54.00;;;;;;6166850;23;20503;-74
2022/07/31 13:34:58;;;;;;;1.87;1.77;;;33.80;53.40;;;;;;6175849;23;20427;-74
2022/07/31 13:37:25;;;;;;;2.10;1.90;;;34.20;52.40;;;;;;6176500;23;20474;-73
2022/07/31 13:39:52;;;;;;;2.83;2.07;;;34.20;52.00;;;;;;6163689;23;20436;-73
2022/07/31 13:42:21;;;;;;;1.90;1.70;;;34.30;52.60;;;;;;6165407;23;20510;-73
2022/07/31 13:44:48;;;;;;;2.37;2.13;;;34.50;51.70;;;;;;6159167;23;20764;-74
2022/07/31 13:47:15;;;;;;;3.63;3.43;;;34.80;50.60;;;;;;6159864;23;20505;-74
2022/07/31 13:49:42;;;;;;;3.27;2.37;;;34.70;50.70;;;;;;6159815;23;20466;-75
2022/07/31 13:52:11;;;;;;;1.83;1.73;;;34.80;50.80;;;;;;6163259;23;20436;-75
2022/07/31 13:54:38;;;;;;;2.53;1.80;;;35.40;49.90;;;;;;6167820;23;20485;-75
2022/07/31 13:57:06;;;;;;;2.23;2.00;;;35.90;50.10;;;;;;6167635;23;20467;-76
2022/07/31 13:59:35;;;;;;;3.83;1.77;;;35.90;48.60;;;;;;6167900;23;20480;-73
2022/07/31 14:02:02;;;;;;;1.97;1.77;;;35.70;48.60;;;;;;6158671;23;20432;-75
2022/07/31 14:04:30;;;;;;;2.10;1.90;;;35.00;48.80;;;;;;6168438;23;21018;-75
2022/07/31 14:06:57;;;;;;;1.73;1.63;;;34.50;49.90;;;;;;6158373;23;20859;-75
2022/07/31 14:09:24;;;;;;;2.50;1.67;;;34.30;50.10;;;;;;6167140;23;20953;-75
2022/07/31 14:11:51;;;;;;;2.00;1.80;;;34.50;50.90;;;;;;6153244;23;20850;-76
2022/07/31 14:14:18;;;;;;;1.80;1.70;;;35.10;48.20;;;;;;6158521;23;20471;-75
2022/07/31 14:16:47;;;;;;;2.00;1.90;;;35.50;47.10;;;;;;6158352;23;20814;-75
2022/07/31 14:19:14;;;;;;;2.10;1.90;;;35.70;46.60;;;;;;6170577;23;20526;-75
2022/07/31 14:21:41;;;;;;;1.70;1.60;;;35.30;46.80;;;;;;6162520;23;20443;-76
2022/07/31 14:24:08;;;;;;;1.63;1.53;;;35.20;47.80;;;;;;6157028;23;20457;-76
2022/07/31 14:26:35;;;;;;;1.73;1.63;;;35.60;46.60;;;;;;6155515;23;20833;-77
2022/07/31 14:29:02;;;;;;;2.10;1.90;;;35.60;47.00;;;;;;6162358;23;20435;-76
2022/07/31 14:31:29;;;;;;;1.93;1.43;;;35.40;46.30;;;;;;6160412;23;20438;-76
2022/07/31 14:33:58;;;;;;;1.67;1.57;;;35.80;46.70;;;;;;6166768;23;20786;-76
2022/07/31 14:36:25;;;;;;;2.13;1.70;;;35.90;47.00;;;;;;6156207;23;20926;-76
2022/07/31 14:38:52;;;;;;;1.80;1.70;;;36.40;46.70;;;;;;6153038;23;20439;-76
2022/07/31 14:41:19;;;;;;;1.83;1.60;;;37.20;46.70;;;;;;6159268;23;20443;-76
2022/07/31 14:43:46;;;;;;;2.17;1.97;;;38.10;45.70;;;;;;6155933;23;20447;-76
2022/07/31 14:46:13;;;;;;;2.00;1.80;;;38.70;43.90;;;;;;6153550;23;20437;-76
2022/07/31 14:48:40;;;;;;;2.17;1.90;;;38.40;43.60;;;;;;6160032;23;20463;-75
2022/07/31 14:51:09;;;;;;;1.80;1.70;;;37.50;44.00;;;;;;6156424;23;20555;-75
2022/07/31 14:53:35;;;;;;;2.00;1.90;;;36.80;44.30;;;;;;6168438;23;20437;-75
2022/07/31 14:56:04;;;;;;;3.00;2.13;;;36.70;45.20;;;;;;6156497;23;20440;-75
2022/07/31 14:58:31;;;;;;;2.07;1.97;;;36.80;45.50;;;;;;6161613;23;20448;-75
2022/07/31 15:00:58;;;;;;;2.00;1.90;;;37.40;45.00;;;;;;6158133;23;20857;-75
2022/07/31 15:03:25;;;;;;;2.30;2.10;;;37.60;44.40;;;;;;6156949;23;20437;-75
2022/07/31 15:05:52;;;;;;;1.70;1.60;;;37.80;44.40;;;;;;6159748;23;20432;-74
2022/07/31 15:08:20;;;;;;;1.80;1.70;;;38.00;43.90;;;;;;6150673;23;20948;-75
2022/07/31 15:10:47;;;;;;;2.03;1.90;;;38.30;43.30;;;;;;6161619;23;21205;-75
2022/07/31 15:13:15;;;;;;;3.00;2.27;;;38.70;43.70;;;;;;6157082;23;20439;-74
2022/07/31 15:15:42;;;;;;;2.03;1.90;;;37.90;43.70;;;;;;6154462;23;20445;-74
2022/07/31 15:18:09;;;;;;;2.10;1.90;;;36.50;44.30;;;;;;6162730;23;20788;-74
2022/07/31 15:20:36;;;;;;;3.57;2.20;;;35.60;45.70;;;;;;6160860;23;20430;-74
2022/07/31 15:23:04;;;;;;;1.93;1.73;;;35.10;46.40;;;;;;6165434;23;20472;-74
2022/07/31 15:25:32;;;;;;;2.00;1.90;;;35.30;47.10;;;;;;6156229;23;20443;-75
2022/07/31 15:27:59;;;;;;;1.73;1.63;;;35.50;46.70;;;;;;6163569;23;20444;-75
2022/07/31 15:30:26;;;;;;;2.27;2.07;;;35.40;46.40;;;;;;6155020;23;20472;-73
2022/07/31 15:32:53;;;;;;;1.93;1.83;;;35.50;46.70;;;;;;6161812;23;20501;-74
2022/07/31 15:35:21;;;;;;;2.80;2.00;;;34.90;46.80;;;;;;6155582;23;20930;-74
2022/07/31 15:37:49;;;;;;;1.97;1.87;;;34.50;48.00;;;;;;6156294;23;20629;-74
2022/07/31 15:40:17;;;;;;;2.80;2.10;;;34.60;48.00;;;;;;6151324;23;20437;-74
2022/07/31 15:42:47;;;;;;;3.57;2.27;;;35.10;47.30;;;;;;6156124;23;20800;-74
2022/07/31 15:45:16;;;;;;;1.90;1.80;;;35.00;46.40;;;;;;6161436;23;20435;-74
2022/07/31 15:47:43;;;;;;;2.33;1.93;;;34.90;47.50;;;;;;6163681;23;20501;-73
2022/07/31 15:50:13;;;;;;;3.47;1.90;;;34.10;47.90;;;;;;6151148;23;20531;-74
2022/07/31 15:52:40;;;;;;;2.37;1.80;;;33.80;48.70;;;;;;6153657;23;20439;-76
2022/07/31 15:55:09;;;;;;;2.07;1.97;;;34.00;49.10;;;;;;6164468;23;20443;-75
2022/07/31 15:57:36;;;;;;;1.93;1.83;;;34.40;48.50;;;;;;6161769;23;20461;-75
2022/07/31 16:00:08;;;;;;;2.53;1.90;;;35.10;47.00;;;;;;6160900;23;20433;-74
2022/07/31 16:02:36;;;;;;;2.20;2.10;;;35.20;46.30;;;;;;6156827;23;20455;-74
2022/07/31 16:05:04;;;;;;;3.30;2.00;;;34.90;46.60;;;;;;6158437;23;20480;-74
2022/07/31 16:07:31;;;;;;;2.27;2.07;;;35.00;47.00;;;;;;6157133;23;21429;-77
2022/07/31 16:09:58;;;;;;;2.20;1.90;;;35.20;47.00;;;;;;6158947;23;20456;-75
2022/07/31 16:12:25;;;;;;;2.03;1.80;;;35.30;46.80;;;;;;6158992;23;20461;-74
2022/07/31 16:14:53;;;;;;;2.10;1.77;;;35.40;47.00;;;;;;6157341;23;20792;-74